createdAt,value
2023-01-02T00:01:38.445Z,99996.19
2023-01-02T00:04:04.874Z,99997.06
2023-01-02T00:06:33.367Z,99995.34
2023-01-02T00:09:00.979Z,99998.84
2023-01-02T00:11:27.576Z,99999.72
2023-01-02T00:13:54.192Z,100013.19
2023-01-02T00:16:20.698Z,100015.75
2023-01-02T00:18:47.103Z,100021.09
2023-01-02T00:21:13.440Z,100023.75
2023-01-02T00:23:39.799Z,100018.53
2023-01-02T00:26:07.445Z,100018.53
2023-01-02T00:28:33.835Z,100021.19
2023-01-02T00:31:05.899Z,100023.00
2023-01-02T00:33:32.250Z,100027.38
2023-01-02T00:35:58.548Z,100022.88
2023-01-02T00:38:24.863Z,100016.84
2023-01-02T00:40:51.194Z,100016.84
2023-01-02T00:43:18.790Z,100023.00
2023-01-02T00:45:45.125Z,100019.50
2023-01-02T00:48:11.570Z,100015.84
2023-01-02T00:50:37.863Z,99997.16
2023-01-02T00:53:04.209Z,100011.50
2023-01-02T00:55:30.563Z,100018.66
2023-01-02T00:57:56.872Z,100023.00
2023-01-02T01:00:24.699Z,100034.53
2023-01-02T01:02:55.385Z,100037.22
2023-01-02T01:05:21.723Z,100039.03
2023-01-02T01:07:48.089Z,100039.03
2023-01-02T01:10:14.466Z,100037.34
2023-01-02T01:12:40.783Z,100041.72
2023-01-02T01:15:07.633Z,100039.03
2023-01-02T01:17:35.277Z,100041.56
2023-01-02T01:20:01.785Z,100035.53
2023-01-02T01:22:28.222Z,100029.19
2023-01-02T01:24:54.560Z,100026.53
2023-01-02T01:27:20.887Z,100042.53
2023-01-02T01:29:47.210Z,100037.22
2023-01-02T01:32:13.611Z,100039.03
2023-01-02T01:34:41.964Z,100037.34
2023-01-02T01:37:08.275Z,100034.69
2023-01-02T01:39:34.637Z,100036.38
2023-01-02T01:42:01.566Z,100044.38
2023-01-02T01:44:37.787Z,100051.53
2023-01-02T01:47:04.319Z,100058.69
2023-01-02T01:49:30.701Z,100064.88
2023-01-02T01:52:01.865Z,100072.06
2023-01-02T01:54:30.096Z,100092.44
2023-01-02T01:56:58.797Z,100086.25
2023-01-02T01:59:25.496Z,100090.75
2023-01-02T02:01:52.148Z,100096.09
2023-01-02T02:04:19.945Z,100095.25
2023-01-02T02:06:47.011Z,100108.59
2023-01-02T02:09:16.348Z,100110.38
2023-01-02T02:11:42.801Z,100115.72
2023-01-02T02:14:09.074Z,100115.72
2023-01-02T02:16:39.184Z,100119.38
2023-01-02T02:19:15.112Z,100118.38
2023-01-02T02:21:52.121Z,100120.22
2023-01-02T02:24:28.608Z,100117.53
2023-01-02T02:27:02.106Z,100125.56
2023-01-02T02:29:43.283Z,100124.72
2023-01-02T02:32:15.082Z,100123.03
2023-01-02T02:34:46.100Z,100130.06
2023-01-02T02:37:21.983Z,100119.38
2023-01-02T02:39:54.030Z,100122.88
2023-01-02T02:42:25.898Z,100122.88
2023-01-02T02:44:57.085Z,100130.06
2023-01-02T02:47:28.046Z,100139.88
2023-01-02T02:49:57.149Z,100132.00
2023-01-02T02:52:26.486Z,100131.03
2023-01-02T02:54:58.134Z,100135.38
2023-01-02T02:57:25.088Z,100135.38
2023-01-02T02:59:51.510Z,100137.34
2023-01-02T03:02:19.000Z,100137.34
2023-01-02T03:04:49.105Z,100135.53
2023-01-02T03:07:21.619Z,100130.06
2023-01-02T03:09:55.453Z,100140.88
2023-01-02T03:12:28.815Z,100134.69
2023-01-02T03:14:58.352Z,100132.00
2023-01-02T03:17:29.816Z,100132.00
2023-01-02T03:20:00.560Z,100140.00
2023-01-02T03:22:31.071Z,100147.16
2023-01-02T03:24:58.120Z,100152.47
2023-01-02T03:27:26.623Z,100161.38
2023-01-02T03:29:55.394Z,100165.00
2023-01-02T03:32:23.493Z,100167.56
2023-01-02T03:34:51.311Z,100175.56
2023-01-02T03:37:22.295Z,100179.19
2023-01-02T03:39:50.909Z,100182.84
2023-01-02T03:42:20.979Z,100176.66
2023-01-02T03:44:50.829Z,100169.38
2023-01-02T03:47:23.138Z,100176.66
2023-01-02T03:49:53.217Z,100181.00
2023-01-02T03:52:25.739Z,100169.63
2023-01-02T03:54:52.901Z,100176.66
2023-01-02T03:57:22.952Z,100186.47
2023-01-02T03:59:55.264Z,100184.66
2023-01-02T04:02:26.422Z,100174.81
2023-01-02T04:04:54.542Z,100187.31
2023-01-02T04:07:26.853Z,100187.31
2023-01-02T04:09:53.316Z,100193.66
2023-01-02T04:12:20.694Z,100183.81
2023-01-02T04:14:50.035Z,100196.31
2023-01-02T04:17:17.822Z,100195.34
2023-01-02T04:19:46.638Z,100196.31
2023-01-02T04:22:15.891Z,100198.97
2023-01-02T04:24:46.782Z,100190.97
2023-01-02T04:27:14.381Z,100204.31
2023-01-02T04:29:41.027Z,100210.59
2023-01-02T04:32:11.601Z,100217.66
2023-01-02T04:34:39.027Z,100221.28
2023-01-02T04:37:05.340Z,100217.78
2023-01-02T04:39:32.704Z,100211.47
2023-01-02T04:42:00.308Z,100211.47
2023-01-02T04:44:26.638Z,100207.09
2023-01-02T04:46:52.995Z,100200.91
2023-01-02T04:49:19.323Z,100205.25
2023-01-02T04:51:45.664Z,100203.56
2023-01-02T04:54:12.067Z,100209.75
2023-01-02T04:56:38.552Z,100206.25
2023-01-02T04:59:06.115Z,100220.44
2023-01-02T05:01:32.654Z,100230.28
2023-01-02T05:03:59.352Z,100226.75
2023-01-02T05:06:25.696Z,100228.56
2023-01-02T05:08:51.983Z,100240.94
2023-01-02T05:11:19.222Z,100244.59
2023-01-02T05:13:45.516Z,100245.31
2023-01-02T05:16:13.247Z,100251.63
2023-01-02T05:18:39.639Z,100270.31
2023-01-02T05:21:07.242Z,100272.97
2023-01-02T05:23:34.143Z,100271.16
2023-01-02T05:26:00.408Z,100280.16
2023-01-02T05:28:26.665Z,100263.28
2023-01-02T05:30:53.050Z,100273.97
2023-01-02T05:33:20.688Z,100286.47
2023-01-02T05:35:47.119Z,100306.00
2023-01-02T05:38:13.435Z,100322.00
2023-01-02T05:40:39.751Z,100316.69
2023-01-02T05:43:06.148Z,100321.16
2023-01-02T05:45:32.429Z,100340.69
2023-01-02T05:47:58.757Z,100317.53
2023-01-02T05:50:26.396Z,100306.97
2023-01-02T05:52:52.731Z,100302.47
2023-01-02T05:55:19.065Z,100301.63
2023-01-02T05:57:45.379Z,100296.28
2023-01-02T06:00:12.160Z,100306.09
2023-01-02T06:02:38.669Z,100312.31
2023-01-02T06:05:05.406Z,100331.84
2023-01-02T06:07:33.086Z,100347.88
2023-01-02T06:09:59.394Z,100349.56
2023-01-02T06:12:25.703Z,100339.00
2023-01-02T06:14:52.121Z,100313.16
2023-01-02T06:17:18.407Z,100302.47
2023-01-02T06:19:50.199Z,100311.44
2023-01-02T06:22:19.919Z,100332.78
2023-01-02T06:24:47.625Z,100347.03
2023-01-02T06:27:13.893Z,100349.56
2023-01-02T06:29:40.247Z,100331.84
2023-01-02T06:32:06.606Z,100321.16
2023-01-02T06:34:32.942Z,100320.31
2023-01-02T06:37:03.082Z,100338.03
2023-01-02T06:39:33.097Z,100355.03
2023-01-02T06:42:00.695Z,100363.97
2023-01-02T06:44:27.031Z,100375.50
2023-01-02T06:46:53.463Z,100383.50
2023-01-02T06:49:19.920Z,100400.41
2023-01-02T06:51:46.260Z,100387.06
2023-01-02T06:54:12.597Z,100365.78
2023-01-02T06:56:38.889Z,100351.47
2023-01-02T06:59:06.472Z,100353.31
2023-01-02T07:01:32.880Z,100359.47
2023-01-02T07:03:59.250Z,100349.78
2023-01-02T07:06:25.579Z,100368.38
2023-01-02T07:08:51.936Z,100396.00
2023-01-02T07:11:19.664Z,100401.34
2023-01-02T07:13:46.678Z,100395.16
2023-01-02T07:16:15.496Z,100432.44
2023-01-02T07:18:41.868Z,100404.88
2023-01-02T07:21:08.896Z,100391.66
2023-01-02T07:23:35.259Z,100411.09
2023-01-02T07:26:02.349Z,100393.34
2023-01-02T07:28:29.101Z,100401.34
2023-01-02T07:30:56.421Z,100412.03
2023-01-02T07:33:24.063Z,100407.53
2023-01-02T07:35:50.445Z,100406.69
2023-01-02T07:38:16.855Z,100416.53
2023-01-02T07:40:43.141Z,100416.66
2023-01-02T07:43:09.570Z,100442.38
2023-01-02T07:45:35.938Z,100451.22
2023-01-02T07:48:02.262Z,100446.72
2023-01-02T07:50:29.949Z,100445.16
2023-01-02T07:52:56.347Z,100458.38
2023-01-02T07:55:22.679Z,100460.09
2023-01-02T07:57:49.052Z,100470.03
2023-01-02T08:00:15.800Z,100478.03
2023-01-02T08:02:42.209Z,100491.41
2023-01-02T08:05:08.832Z,100489.66
2023-01-02T08:07:42.690Z,100502.06
2023-01-02T08:10:09.299Z,100508.34
2023-01-02T08:12:35.600Z,100502.16
2023-01-02T08:15:02.006Z,100517.25
2023-01-02T08:17:28.285Z,100514.66
2023-01-02T08:19:54.628Z,100530.59
2023-01-02T08:22:20.904Z,100541.34
2023-01-02T08:24:48.601Z,100544.03
2023-01-02T08:27:14.888Z,100552.03
2023-01-02T08:29:41.199Z,100559.19
2023-01-02T08:32:07.552Z,100559.19
2023-01-02T08:34:34.037Z,100566.34
2023-01-02T08:37:00.325Z,100577.03
2023-01-02T08:39:26.646Z,100569.03
2023-01-02T08:41:54.287Z,100582.38
2023-01-02T08:44:20.607Z,100579.72
2023-01-02T08:46:47.136Z,100587.72
2023-01-02T08:49:13.457Z,100585.13
2023-01-02T08:51:39.803Z,100589.53
2023-01-02T08:54:06.153Z,100591.34
2023-01-02T08:56:32.802Z,100598.41
2023-01-02T08:59:01.275Z,100605.56
2023-01-02T09:01:28.753Z,100608.22
2023-01-02T09:03:55.579Z,100607.38
2023-01-02T09:06:22.865Z,100614.50
2023-01-02T09:08:49.419Z,100613.66
2023-01-02T09:11:17.008Z,100621.66
2023-01-02T09:13:43.700Z,100624.31
2023-01-02T09:16:11.923Z,100638.53
2023-01-02T09:18:38.823Z,100642.16
2023-01-02T09:21:05.526Z,100645.69
2023-01-02T09:23:32.440Z,100653.69
2023-01-02T09:25:58.823Z,100656.34
2023-01-02T09:28:25.538Z,100654.53
2023-01-02T09:30:51.841Z,100663.44
2023-01-02T09:33:19.497Z,100673.22
2023-01-02T09:35:45.811Z,100668.84
2023-01-02T09:38:12.119Z,100676.88
2023-01-02T09:40:43.636Z,100679.44
2023-01-02T09:43:10.876Z,100686.56
2023-01-02T09:45:40.361Z,100683.06
2023-01-02T09:48:13.949Z,100688.41
2023-01-02T09:50:41.824Z,100691.19
2023-01-02T09:53:10.151Z,100697.38
2023-01-02T09:55:41.336Z,100708.06
2023-01-02T09:58:11.972Z,100700.03
2023-01-02T10:00:38.807Z,100702.72
2023-01-02T10:03:12.146Z,100711.56
2023-01-02T10:05:51.154Z,100712.53
2023-01-02T10:08:25.068Z,100718.72
2023-01-02T10:11:02.074Z,100723.09
2023-01-02T10:16:21.728Z,100740.09
2023-01-02T10:18:50.709Z,100743.53
2023-01-02T10:21:21.333Z,100740.94
2023-01-02T10:23:49.819Z,100752.56
2023-01-02T10:26:16.598Z,100761.56
2023-01-02T10:28:46.764Z,100761.56
2023-01-02T10:31:17.682Z,100763.25
2023-01-02T10:33:45.058Z,100775.75
2023-01-02T10:36:18.247Z,100766.91
2023-01-02T10:38:46.035Z,100782.78
2023-01-02T10:41:12.356Z,100777.47
2023-01-02T10:43:38.686Z,100789.00
2023-01-02T10:46:05.270Z,100786.31
2023-01-02T10:48:33.492Z,100793.47
2023-01-02T10:51:02.108Z,100795.28
2023-01-02T10:53:29.312Z,100808.63
2023-01-02T10:56:00.898Z,100803.09
2023-01-02T10:58:28.538Z,100807.69
2023-01-02T11:01:03.327Z,100813.00
2023-01-02T11:03:29.695Z,100804.16
2023-01-02T11:05:59.365Z,100811.31
2023-01-02T11:08:38.266Z,100810.47
2023-01-02T11:11:14.438Z,100810.47
2023-01-02T11:13:48.939Z,100811.31
2023-01-02T11:16:18.703Z,100813.00
2023-01-02T11:18:49.560Z,100802.44
2023-01-02T11:21:24.132Z,100802.44
2023-01-02T11:23:50.611Z,100798.94
2023-01-02T11:26:22.178Z,100809.50
2023-01-02T11:28:49.411Z,100805.13
2023-01-02T11:31:16.727Z,100802.44
2023-01-02T11:33:44.869Z,100803.38
2023-01-02T11:36:15.252Z,100812.28
2023-01-02T11:38:43.015Z,100812.28
2023-01-02T11:41:21.439Z,100820.28
2023-01-02T11:43:52.889Z,100823.81
2023-01-02T11:46:26.531Z,100821.13
2023-01-02T11:48:55.655Z,100828.19
2023-01-02T11:51:22.425Z,100833.63
2023-01-02T11:53:51.534Z,100833.63
2023-01-02T11:56:21.913Z,100835.34
2023-01-02T11:58:52.782Z,100839.72
2023-01-02T12:01:22.044Z,100840.69
2023-01-02T12:03:48.671Z,100843.34
2023-01-02T12:06:16.842Z,100836.19
2023-01-02T12:08:51.656Z,100844.31
2023-01-02T12:11:24.394Z,100844.31
2023-01-02T12:13:59.884Z,100853.16
2023-01-02T12:16:31.165Z,100851.44
2023-01-02T12:19:12.925Z,100855.00
2023-01-02T12:21:43.411Z,100861.19
2023-01-02T12:24:19.724Z,100860.31
2023-01-02T12:26:49.470Z,100862.03
2023-01-02T12:29:46.082Z,100854.03
2023-01-02T12:32:24.976Z,100861.19
2023-01-02T12:34:59.545Z,100856.56
2023-01-02T12:37:33.113Z,100865.56
2023-01-02T12:40:05.638Z,100869.06
2023-01-02T12:42:38.363Z,100873.56
2023-01-02T12:45:13.253Z,100874.41
2023-01-02T12:47:49.817Z,100869.19
2023-01-02T12:50:24.149Z,100878.91
2023-01-02T12:53:00.302Z,100870.88
2023-01-02T12:55:31.989Z,100873.56
2023-01-02T12:57:59.101Z,100875.38
2023-01-02T13:00:35.205Z,100870.88
2023-01-02T13:03:08.423Z,100875.25
2023-01-02T13:05:38.372Z,100871.75
2023-01-02T13:08:07.527Z,100884.25
2023-01-02T13:10:34.009Z,100880.59
2023-01-02T13:13:00.910Z,100885.09
2023-01-02T13:15:31.058Z,100889.56
2023-01-02T13:18:00.151Z,100884.25
2023-01-02T13:20:30.172Z,100881.56
2023-01-02T13:23:03.466Z,100889.56
2023-01-02T13:25:31.219Z,100886.91
2023-01-02T13:27:58.366Z,100892.25
2023-01-02T13:30:34.767Z,100886.91
2023-01-02T13:33:03.568Z,100888.72
2023-01-02T13:35:30.579Z,100897.59
2023-01-02T13:37:56.991Z,100894.91
2023-01-02T13:40:26.026Z,100894.06
2023-01-02T13:42:56.798Z,100900.25
2023-01-02T13:45:24.317Z,100910.94
2023-01-02T13:47:52.912Z,100919.81
2023-01-02T13:50:22.367Z,100914.38
2023-01-02T13:53:00.171Z,100919.72
2023-01-02T13:55:28.862Z,100923.31
2023-01-02T13:58:23.172Z,100923.31
2023-01-02T14:00:54.917Z,100924.28
2023-01-02T14:03:33.904Z,100924.28
2023-01-02T14:06:02.375Z,100920.66
2023-01-02T14:08:29.828Z,100920.66
2023-01-02T14:10:58.618Z,100921.63
2023-01-02T14:13:28.073Z,100924.28
2023-01-02T14:16:04.918Z,100927.81
2023-01-02T14:18:31.381Z,100926.09
2023-01-02T14:20:57.734Z,100928.78
2023-01-02T14:23:27.632Z,100932.28
2023-01-02T14:25:54.006Z,100931.44
2023-01-02T14:28:22.836Z,100936.78
2023-01-02T14:30:49.864Z,100934.09
2023-01-02T14:33:17.908Z,100942.00
2023-01-02T14:35:50.080Z,100950.00
2023-01-02T14:38:18.653Z,100946.59
2023-01-02T14:40:46.827Z,100939.44
2023-01-02T14:43:15.585Z,100942.97
2023-01-02T14:45:43.284Z,100940.31
2023-01-02T14:48:12.877Z,100943.94
2023-01-02T14:50:41.638Z,100950.97
2023-01-02T14:53:12.592Z,100951.94
2023-01-02T14:55:41.928Z,100952.78
2023-01-02T14:58:16.398Z,100954.63
2023-01-02T15:00:44.244Z,100959.00
2023-01-02T15:03:15.369Z,100966.16
2023-01-02T15:05:43.870Z,100964.34
2023-01-02T15:08:11.059Z,100968.72
2023-01-02T15:10:52.252Z,100966.16
2023-01-02T15:13:20.014Z,100973.19
2023-01-02T15:15:48.325Z,100967.00
2023-01-02T15:18:17.681Z,100972.34
2023-01-02T15:20:48.302Z,100972.34
2023-01-02T15:23:17.506Z,100973.31
2023-01-02T15:25:43.772Z,100978.66
2023-01-02T15:28:23.064Z,100969.78
2023-01-02T15:30:57.780Z,100980.47
2023-01-02T15:33:25.477Z,100974.16
2023-01-02T15:35:54.677Z,100972.34
2023-01-02T15:38:21.284Z,100978.66
2023-01-02T15:40:47.679Z,100973.31
2023-01-02T15:43:15.088Z,100976.81
2023-01-02T15:45:44.576Z,100967.97
2023-01-02T15:48:11.995Z,100976.81
2023-01-02T15:50:39.069Z,100983.00
2023-01-02T15:53:07.425Z,100979.56
2023-01-02T15:55:35.135Z,100984.91
2023-01-02T15:58:11.815Z,100986.66
2023-01-02T16:00:38.580Z,100993.81
2023-01-02T16:03:06.923Z,101004.47
2023-01-02T16:05:45.684Z,100984.91
2023-01-02T16:08:16.928Z,100993.81
2023-01-02T16:10:50.616Z,100999.16
2023-01-02T16:13:18.760Z,101005.34
2023-01-02T16:15:45.141Z,101000.06
2023-01-02T16:18:12.947Z,101017.91
2023-01-02T16:20:39.310Z,101017.91
2023-01-02T16:23:07.606Z,101024.09
2023-01-02T16:25:35.177Z,101020.59
2023-01-02T16:28:36.233Z,101026.78
2023-01-02T16:31:06.100Z,101025.91
2023-01-02T16:33:33.848Z,101028.59
2023-01-02T16:36:07.419Z,101027.75
2023-01-02T16:38:44.893Z,101035.81
2023-01-02T16:41:19.429Z,101038.41
2023-01-02T16:43:45.895Z,101048.25
2023-01-02T16:46:15.801Z,101055.41
2023-01-02T16:48:43.793Z,101059.84
2023-01-02T16:51:10.139Z,101065.19
2023-01-02T16:53:36.727Z,101062.53
2023-01-02T16:56:03.091Z,101061.66
2023-01-02T16:58:29.464Z,101067.97
2023-01-02T17:00:56.060Z,101064.34
2023-01-02T17:03:23.479Z,101066.16
2023-01-02T17:06:02.147Z,101065.28
2023-01-02T17:08:29.466Z,101062.63
2023-01-02T17:10:55.803Z,101067.97
2023-01-02T17:13:22.130Z,101066.25
2023-01-02T17:15:48.427Z,101062.75
2023-01-02T17:18:14.848Z,101064.44
2023-01-02T17:20:41.188Z,101068.06
2023-01-02T17:23:08.955Z,101068.06
2023-01-02T17:25:35.271Z,101070.75
2023-01-02T17:28:02.220Z,101064.53
2023-01-02T17:30:28.559Z,101068.97
2023-01-02T17:33:00.094Z,101060.06
2023-01-02T17:35:30.129Z,101062.75
2023-01-02T17:37:56.445Z,101063.63
2023-01-02T17:40:24.191Z,101069.84
2023-01-02T17:42:50.514Z,101066.31
2023-01-02T17:45:16.866Z,101069.94
2023-01-02T17:50:29.710Z,101070.78
2023-01-02T17:52:56.032Z,101069.09
2023-01-02T17:55:23.672Z,101070.03
2023-01-02T17:57:49.971Z,101084.25
2023-01-02T18:00:16.448Z,101085.94
2023-01-02T18:02:42.908Z,101087.75
2023-01-02T18:05:09.512Z,101086.91
2023-01-02T18:07:35.953Z,101087.75
2023-01-02T18:10:07.583Z,101083.38
2023-01-02T18:12:37.891Z,101078.97
2023-01-02T18:15:10.118Z,101087.84
2023-01-02T18:17:36.439Z,101090.50
2023-01-02T18:20:06.036Z,101093.19
2023-01-02T18:22:32.564Z,101095.00
2023-01-02T18:24:59.366Z,101099.41
2023-01-02T18:27:26.613Z,101095.84
2023-01-02T18:29:58.108Z,101097.66
2023-01-02T18:32:27.999Z,101102.16
2023-01-02T18:34:59.492Z,101102.16
2023-01-02T18:37:26.971Z,101095.09
2023-01-02T18:39:53.837Z,101101.28
2023-01-02T18:42:21.188Z,101102.16
2023-01-02T18:44:48.504Z,101103.97
2023-01-02T18:47:23.316Z,101110.16
2023-01-02T18:49:49.628Z,101111.88
2023-01-02T18:52:22.382Z,101112.81
2023-01-02T18:54:51.607Z,101119.13
2023-01-02T18:57:19.079Z,101108.44
2023-01-02T18:59:46.905Z,101112.81
2023-01-02T19:02:19.687Z,101118.16
2023-01-02T19:04:47.371Z,101121.78
2023-01-02T19:07:16.289Z,101120.84
2023-01-02T19:09:42.553Z,101124.34
2023-01-02T19:12:19.340Z,101120.84
2023-01-02T19:14:45.613Z,101127.03
2023-01-02T19:17:16.798Z,101126.16
2023-01-02T19:19:43.821Z,101126.28
2023-01-02T19:22:13.041Z,101130.66
2023-01-02T19:24:39.415Z,101140.38
2023-01-02T19:27:16.090Z,101137.81
2023-01-02T19:29:44.999Z,101144.00
2023-01-02T19:32:17.360Z,101138.66
2023-01-02T19:34:45.290Z,101142.19
2023-01-02T19:37:21.523Z,101136.97
2023-01-02T19:39:50.892Z,101137.81
2023-01-02T19:42:17.236Z,101142.28
2023-01-02T19:44:43.549Z,101134.34
2023-01-02T19:47:09.883Z,101131.63
2023-01-02T19:49:36.364Z,101140.47
2023-01-02T19:52:02.690Z,101131.69
2023-01-02T19:54:29.007Z,101130.75
2023-01-02T19:56:56.574Z,101138.78
2023-01-02T19:59:23.001Z,101129.03
2023-01-02T20:01:49.447Z,101128.84
2023-01-02T20:04:15.815Z,101128.94
2023-01-02T20:06:42.136Z,101135.16
2023-01-02T20:09:08.517Z,101137.81
2023-01-02T20:11:34.881Z,101143.16
2023-01-02T20:14:02.515Z,101132.47
2023-01-02T20:16:28.807Z,101139.63
2023-01-02T20:18:55.099Z,101148.50
2023-01-02T20:21:21.574Z,101142.28
2023-01-02T20:23:51.521Z,101139.63
2023-01-02T20:26:22.421Z,101142.19
2023-01-02T20:28:48.720Z,101134.19
2023-01-02T20:31:16.386Z,101132.38
2023-01-02T20:33:42.723Z,101130.66
2023-01-02T20:36:13.593Z,101134.28
2023-01-02T20:38:40.696Z,101128.94
2023-01-02T20:41:06.980Z,101136.00
2023-01-02T20:43:33.311Z,101132.47
2023-01-02T20:45:59.705Z,101136.00
2023-01-02T20:48:27.388Z,101130.75
2023-01-02T20:50:53.707Z,101136.00
2023-01-02T20:53:20.282Z,101138.78
2023-01-02T20:55:46.745Z,101150.31
2023-01-02T20:58:13.135Z,101139.63
2023-01-02T21:00:39.420Z,101139.69
2023-01-02T21:03:06.137Z,101142.28
2023-01-02T21:05:33.949Z,101132.53
2023-01-02T21:08:00.291Z,101136.09
2023-01-02T21:10:26.584Z,101134.34
2023-01-02T21:12:52.900Z,101137.88
2023-01-02T21:15:19.220Z,101137.88
2023-01-02T21:17:45.550Z,101137.03
2023-01-02T21:20:11.911Z,101155.72
2023-01-02T21:22:39.545Z,101160.19
2023-01-02T21:25:06.167Z,101156.69
2023-01-02T21:27:32.468Z,101154.84
2023-01-02T21:29:58.836Z,101154.84
2023-01-02T21:32:25.268Z,101161.06
2023-01-02T21:34:51.698Z,101160.19
2023-01-02T21:37:17.983Z,101157.63
2023-01-02T21:39:45.648Z,101162.88
2023-01-02T21:42:11.950Z,101159.34
2023-01-02T21:44:38.243Z,101151.34
2023-01-02T21:47:04.763Z,101148.66
2023-01-02T21:49:31.128Z,101152.28
2023-01-02T21:51:57.437Z,101149.63
2023-01-02T21:54:23.796Z,101149.63
2023-01-02T21:56:51.566Z,101154.97
2023-01-02T21:59:17.977Z,101152.28
2023-01-02T22:01:44.567Z,101148.66
2023-01-02T22:04:10.969Z,101152.28
2023-01-02T22:06:45.656Z,101159.34
2023-01-02T22:09:23.608Z,101154.00
2023-01-02T22:11:51.271Z,101154.97
2023-01-02T22:14:17.550Z,101153.16
2023-01-02T22:16:43.919Z,101152.28
2023-01-02T22:19:10.430Z,101154.09
2023-01-02T22:21:36.841Z,101162.97
2023-01-02T22:24:03.258Z,101162.97
2023-01-02T22:26:29.616Z,101161.22
2023-01-02T22:28:57.796Z,101162.97
2023-01-02T22:31:24.741Z,101170.97
2023-01-02T22:33:51.185Z,101171.91
2023-01-02T22:36:17.490Z,101169.25
2023-01-02T22:39:09.352Z,101175.53
2023-01-02T22:41:30.204Z,101183.53
2023-01-02T22:43:58.992Z,101180.88
2023-01-02T22:46:27.860Z,101172.88
2023-01-02T22:48:54.376Z,101176.50
2023-01-02T22:51:42.822Z,101173.81
2023-01-02T22:54:09.824Z,101172.97
2023-01-02T22:56:36.203Z,101174.69
2023-01-02T22:59:03.996Z,101181.84
2023-01-02T23:01:31.474Z,101179.16
2023-01-02T23:03:58.150Z,101180.88
2023-01-02T23:06:24.541Z,101185.34
2023-01-02T23:08:51.189Z,101189.75
2023-01-02T23:11:18.291Z,101195.94
2023-01-02T23:13:45.075Z,101198.41
2023-01-02T23:16:12.951Z,101206.53
2023-01-02T23:18:39.937Z,101205.56
2023-01-02T23:21:07.479Z,101201.03
2023-01-02T23:23:33.808Z,101209.03
2023-01-02T23:26:00.296Z,101203.69
2023-01-02T23:29:04.559Z,101201.03
2023-01-02T23:31:14.364Z,101207.22
2023-01-02T23:33:40.674Z,101213.41
2023-01-02T23:36:07.140Z,101219.59
2023-01-02T23:38:33.870Z,101216.94
2023-01-02T23:41:00.377Z,101208.91
2023-01-02T23:43:26.818Z,101211.59
2023-01-02T23:45:53.209Z,101215.97
2023-01-02T23:48:21.003Z,101206.25
2023-01-02T23:50:55.386Z,101204.38
2023-01-02T23:53:21.716Z,101207.09
2023-01-02T23:55:48.040Z,101210.63
2023-01-02T23:58:14.352Z,101210.63
